Time;durP1;ratioP1;P1;durP2;ratioP2;P2;SDS_P1;SDS_P2;PMS_P1;PMS_P2;Temp;Humidity;BMP_temperature;BMP_pressure;BME280_temperature;BME280_humidity;BME280_pressure;Samples;Min_cycle;Max_cycle;Signal;HPM_P1;HPM_P2
2023/03/24 00:02:12;;;;;;;5.85;3.22;;;13.70;1.00;;;;;;7366982;19;20467;-73
2023/03/24 00:04:42;;;;;;;4.00;2.70;;;13.70;1.00;;;;;;7388276;19;20038;-75
2023/03/24 00:07:14;;;;;;;4.80;2.63;;;13.80;1.00;;;;;;7365335;19;20010;-74
2023/03/24 00:09:46;;;;;;;3.17;2.47;;;13.70;1.00;;;;;;7362253;19;20010;-74
2023/03/24 00:12:17;;;;;;;4.30;2.78;;;13.70;1.00;;;;;;7366776;19;20095;-74
2023/03/24 00:14:47;;;;;;;4.50;3.30;;;13.70;1.00;;;;;;7366470;19;20039;-73
2023/03/24 00:17:24;;;;;;;4.97;2.80;;;13.70;1.00;;;;;;7372439;19;20906;-76
2023/03/24 00:19:54;;;;;;;3.90;2.67;;;13.70;1.00;;;;;;7393233;19;20905;-74
2023/03/24 00:22:27;;;;;;;3.42;2.40;;;13.70;1.00;;;;;;7372587;19;20239;-76
2023/03/24 00:24:57;;;;;;;3.38;2.28;;;13.80;1.00;;;;;;7371617;19;20022;-75
2023/03/24 00:27:29;;;;;;;3.40;2.58;;;13.80;1.00;;;;;;7371386;19;20014;-75
2023/03/24 00:30:02;;;;;;;4.65;2.60;;;13.90;1.00;;;;;;7370831;19;20014;-75
2023/03/24 00:32:35;;;;;;;2.58;2.17;;;13.90;1.00;;;;;;7372373;19;20007;-75
2023/03/24 00:35:07;;;;;;;3.45;2.35;;;14.00;1.00;;;;;;7377558;19;20022;-75
2023/03/24 00:37:38;;;;;;;4.10;2.58;;;14.00;1.00;;;;;;7393049;19;20018;-75
2023/03/24 00:40:11;;;;;;;2.78;2.20;;;14.10;1.00;;;;;;7368228;19;20014;-75
2023/03/24 00:42:44;;;;;;;3.17;2.40;;;14.10;1.00;;;;;;7372318;19;20010;-75
2023/03/24 00:45:16;;;;;;;4.05;2.50;;;14.10;1.00;;;;;;7372388;19;20062;-75
2023/03/24 00:47:52;;;;;;;2.95;2.47;;;14.00;1.00;;;;;;7369980;19;20007;-75
2023/03/24 00:50:25;;;;;;;3.47;2.30;;;14.10;1.00;;;;;;7369380;19;20025;-75
2023/03/24 00:52:57;;;;;;;2.70;2.38;;;14.10;1.00;;;;;;7395873;19;20014;-75
2023/03/24 00:55:27;;;;;;;3.20;2.42;;;14.10;1.00;;;;;;7371332;19;20002;-75
2023/03/24 00:57:59;;;;;;;3.75;2.40;;;14.10;1.00;;;;;;7371376;19;20007;-75
2023/03/24 01:00:29;;;;;;;5.38;2.47;;;14.10;1.00;;;;;;7368926;19;20007;-75
2023/03/24 01:03:02;;;;;;;6.28;3.38;;;14.20;1.00;;;;;;7370470;19;20455;-75
2023/03/24 01:05:35;;;;;;;3.65;2.10;;;14.20;1.00;;;;;;7371257;19;20018;-74
2023/03/24 01:08:07;;;;;;;3.20;2.03;;;14.20;1.00;;;;;;7381607;19;20039;-75
2023/03/24 01:10:41;;;;;;;2.60;2.33;;;14.20;1.00;;;;;;7390469;19;20018;-74
2023/03/24 01:13:11;;;;;;;;;;;14.20;1.00;;;;;;7372086;19;20466;-75
2023/03/24 01:15:41;;;;;;;3.03;2.00;;;14.20;1.00;;;;;;7366740;19;19923;-75
2023/03/24 01:18:15;;;;;;;3.20;2.53;;;14.20;1.00;;;;;;7369060;19;20033;-76
2023/03/24 01:20:47;;;;;;;2.90;2.25;;;14.30;1.00;;;;;;7369614;19;20486;-76
2023/03/24 01:23:21;;;;;;;6.30;2.40;;;14.30;1.00;;;;;;7402853;19;19995;-76
2023/03/24 01:25:52;;;;;;;3.38;1.77;;;14.30;1.00;;;;;;7428649;19;20071;-76
2023/03/24 01:28:26;;;;;;;2.50;1.92;;;14.40;1.00;;;;;;7402914;19;20015;-75
2023/03/24 01:30:56;;;;;;;3.83;2.35;;;14.40;1.00;;;;;;7376064;19;20042;-75
2023/03/24 01:33:28;;;;;;;3.65;2.03;;;14.40;1.00;;;;;;7372225;19;20006;-78
2023/03/24 01:35:59;;;;;;;2.60;1.95;;;14.50;1.00;;;;;;7369890;19;20029;-77
2023/03/24 01:38:29;;;;;;;3.65;2.25;;;14.60;1.00;;;;;;7369866;19;20077;-76
2023/03/24 01:40:59;;;;;;;3.28;2.00;;;14.50;1.00;;;;;;7391862;19;20017;-76
2023/03/24 01:43:32;;;;;;;3.97;2.08;;;14.60;1.00;;;;;;7369557;19;20065;-76
2023/03/24 01:46:25;;;;;;;4.57;1.88;;;14.60;1.00;;;;;;7370219;19;20011;-76
2023/03/24 01:49:01;;;;;;;2.53;2.00;;;14.50;1.00;;;;;;7365045;19;20033;-76
2023/03/24 01:51:35;;;;;;;2.35;1.80;;;14.60;1.00;;;;;;7370245;19;20489;-76
2023/03/24 01:54:09;;;;;;;4.30;2.22;;;14.40;1.00;;;;;;7370085;19;20011;-76
2023/03/24 01:56:42;;;;;;;5.30;2.40;;;14.30;1.00;;;;;;7371425;19;20021;-75
2023/03/24 01:59:19;;;;;;;6.03;2.05;;;14.20;1.00;;;;;;7373442;19;20027;-75
2023/03/24 02:01:51;;;;;;;2.83;2.20;;;14.20;1.00;;;;;;7392167;19;20030;-77
2023/03/24 02:04:24;;;;;;;2.67;2.10;;;14.20;1.00;;;;;;7368405;19;20010;-77
2023/03/24 02:06:55;;;;;;;3.17;2.30;;;14.10;1.00;;;;;;7369632;19;20010;-77
2023/03/24 02:09:25;;;;;;;3.17;1.95;;;14.10;1.00;;;;;;7367284;19;20074;-76
2023/03/24 02:11:56;;;;;;;3.33;2.00;;;14.10;1.00;;;;;;7369558;19;20022;-75
2023/03/24 02:14:27;;;;;;;5.00;2.40;;;14.10;1.00;;;;;;7369081;19;20352;-76
2023/03/24 02:17:12;;;;;;;4.60;2.42;;;14.10;1.00;;;;;;7390111;19;20011;-75
2023/03/24 02:20:13;;;;;;;3.78;2.20;;;14.10;1.00;;;;;;7368249;19;20015;-75
2023/03/24 02:23:14;;;;;;;3.42;2.25;;;14.00;1.00;;;;;;7368479;19;20467;-76
2023/03/24 02:26:19;;;;;;;3.63;2.13;;;14.00;1.00;;;;;;7368988;19;20021;-75
2023/03/24 02:28:54;;;;;;;;;;;14.00;1.00;;;;;;7368469;19;20010;-75
2023/03/24 02:31:43;;;;;;;3.13;2.15;;;14.00;1.00;;;;;;7366623;19;19911;-75
2023/03/24 02:34:42;;;;;;;6.57;2.30;;;14.10;1.00;;;;;;7368017;19;20027;-76
2023/03/24 02:37:31;;;;;;;3.10;1.88;;;14.10;1.00;;;;;;7364795;19;20340;-76
2023/03/24 02:40:31;;;;;;;5.50;1.75;;;14.20;1.00;;;;;;7367683;19;20018;-76
2023/03/24 02:43:18;;;;;;;2.65;2.10;;;14.10;1.00;;;;;;7369265;19;20358;-76
2023/03/24 02:46:00;;;;;;;4.90;2.10;;;14.30;1.00;;;;;;7367355;19;20016;-75
2023/03/24 02:48:36;;;;;;;2.75;1.77;;;14.20;1.00;;;;;;7365874;19;20070;-75
2023/03/24 02:51:13;;;;;;;3.40;1.90;;;14.20;1.00;;;;;;7370066;19;20470;-76
2023/03/24 02:53:53;;;;;;;3.70;1.73;;;14.20;1.00;;;;;;7367579;19;20010;-75
2023/03/24 02:56:33;;;;;;;4.13;1.90;;;14.20;1.00;;;;;;7369395;19;20018;-76
2023/03/24 02:59:06;;;;;;;3.95;1.73;;;14.40;1.00;;;;;;7379754;19;20018;-77
2023/03/24 03:01:39;;;;;;;1.80;1.58;;;14.50;1.00;;;;;;7368678;19;20011;-77
2023/03/24 03:04:14;;;;;;;1.83;1.55;;;14.50;1.00;;;;;;7367170;19;20014;-77
2023/03/24 03:06:50;;;;;;;3.40;1.60;;;14.70;1.00;;;;;;7375040;19;20010;-75
2023/03/24 03:09:23;;;;;;;2.50;1.73;;;14.70;1.00;;;;;;7366875;19;20006;-76
2023/03/24 03:11:59;;;;;;;1.73;1.42;;;14.80;1.00;;;;;;7367680;19;20518;-76
2023/03/24 03:14:35;;;;;;;2.38;1.50;;;14.90;1.00;;;;;;7366606;19;20014;-76
2023/03/24 03:17:10;;;;;;;2.53;1.70;;;14.90;1.00;;;;;;7373704;19;20050;-76
2023/03/24 03:19:43;;;;;;;2.45;1.55;;;14.90;1.00;;;;;;7387941;19;20014;-76
2023/03/24 03:22:19;;;;;;;2.38;1.83;;;14.90;1.00;;;;;;7368364;19;20010;-76
2023/03/24 03:24:53;;;;;;;3.58;1.95;;;14.90;1.00;;;;;;7365327;19;20025;-75
2023/03/24 03:27:30;;;;;;;4.63;1.70;;;14.90;1.00;;;;;;7363011;19;20022;-75
2023/03/24 03:30:04;;;;;;;1.98;1.60;;;14.90;1.00;;;;;;7366245;19;20021;-75
2023/03/24 03:32:37;;;;;;;2.17;1.95;;;14.80;1.00;;;;;;7367033;19;20020;-75
2023/03/24 03:35:12;;;;;;;3.17;1.63;;;14.80;1.00;;;;;;7366978;19;20018;-74
2023/03/24 03:37:48;;;;;;;2.75;1.90;;;14.70;1.00;;;;;;7387014;19;20039;-75
2023/03/24 03:40:22;;;;;;;2.42;1.70;;;14.70;1.00;;;;;;7365348;19;20021;-76
2023/03/24 03:42:55;;;;;;;2.88;1.70;;;14.60;1.00;;;;;;7366958;19;20014;-76
2023/03/24 03:45:25;;;;;;;7.18;2.10;;;14.60;1.00;;;;;;7365561;19;20042;-76
2023/03/24 03:47:55;;;;;;;3.67;1.92;;;14.60;1.00;;;;;;7364101;19;20488;-76
2023/03/24 03:50:25;;;;;;;2.67;1.70;;;14.70;1.00;;;;;;7364487;19;20007;-76
2023/03/24 03:52:56;;;;;;;2.60;1.83;;;14.70;1.00;;;;;;7389880;19;20035;-76
2023/03/24 03:55:26;;;;;;;3.28;1.90;;;14.70;1.00;;;;;;7365673;19;20490;-76
2023/03/24 03:57:59;;;;;;;4.97;1.80;;;14.70;1.00;;;;;;7363829;19;20011;-76
2023/03/24 04:00:29;;;;;;;2.47;1.75;;;14.70;1.00;;;;;;7364416;19;20507;-75
2023/03/24 04:03:22;;;;;;;2.70;1.70;;;14.70;1.00;;;;;;7366551;19;20765;-75
2023/03/24 04:06:00;;;;;;;2.65;1.60;;;14.80;1.00;;;;;;7365851;19;20395;-75
2023/03/24 04:08:40;;;;;;;2.65;1.80;;;14.80;1.00;;;;;;7363287;19;20010;-76
2023/03/24 04:11:35;;;;;;;2.67;1.80;;;14.90;1.00;;;;;;7366690;19;20014;-75
2023/03/24 04:14:16;;;;;;;;;;;14.90;1.00;;;;;;7389088;19;20018;-76
2023/03/24 04:16:59;;;;;;;6.25;1.90;;;14.90;1.00;;;;;;7366446;19;19921;-76
2023/03/24 04:19:42;;;;;;;2.63;1.77;;;14.90;1.00;;;;;;7364629;19;20025;-76
2023/03/24 04:22:27;;;;;;;2.85;1.75;;;14.80;1.00;;;;;;7367508;19;20016;-76
2023/03/24 04:25:01;;;;;;;1.70;1.60;;;14.80;1.00;;;;;;7363039;19;20442;-76
2023/03/24 04:27:38;;;;;;;;;;;14.90;1.00;;;;;;7363575;19;20526;-76
2023/03/24 04:30:18;;;;;;;2.28;1.80;;;14.80;1.00;;;;;;7365355;19;20315;-76
2023/03/24 04:32:50;;;;;;;3.80;1.85;;;14.80;1.00;;;;;;7366598;19;20006;-76
2023/03/24 04:35:30;;;;;;;2.90;1.58;;;14.90;1.00;;;;;;7365681;19;20014;-76
2023/03/24 04:38:05;;;;;;;3.22;1.50;;;14.90;1.00;;;;;;7387181;19;20018;-76
2023/03/24 04:40:40;;;;;;;4.35;1.90;;;14.90;1.00;;;;;;7361803;19;20022;-76
2023/03/24 04:43:15;;;;;;;2.20;1.60;;;14.90;1.00;;;;;;7366224;19;20399;-77
2023/03/24 04:45:49;;;;;;;2.55;1.80;;;14.90;1.00;;;;;;7365621;19;20010;-76
2023/03/24 04:48:20;;;;;;;2.67;1.60;;;14.90;1.00;;;;;;7388874;19;20011;-76
2023/03/24 04:50:56;;;;;;;3.30;1.60;;;14.90;1.00;;;;;;7388947;19;20266;-76
2023/03/24 04:53:26;;;;;;;3.25;1.95;;;15.00;1.00;;;;;;7365463;19;20031;-75
2023/03/24 04:56:06;;;;;;;2.47;1.77;;;15.10;1.00;;;;;;7350558;19;20010;-76
2023/03/24 04:58:36;;;;;;;2.90;1.67;;;15.00;1.00;;;;;;7379630;19;20018;-76
2023/03/24 05:01:08;;;;;;;2.85;1.58;;;15.00;1.00;;;;;;7400460;19;20048;-75
2023/03/24 05:03:38;;;;;;;3.22;1.90;;;15.00;1.00;;;;;;7406901;19;20625;-75
2023/03/24 05:06:11;;;;;;;3.20;1.67;;;15.00;1.00;;;;;;7401690;19;20046;-76
2023/03/24 05:08:42;;;;;;;3.45;1.73;;;15.00;1.00;;;;;;7370626;19;20459;-75
2023/03/24 05:11:11;;;;;;;2.33;1.65;;;15.00;1.00;;;;;;7373235;19;20042;-76
2023/03/24 05:13:41;;;;;;;6.03;2.25;;;14.90;1.00;;;;;;7372388;19;20018;-76
2023/03/24 05:16:14;;;;;;;2.63;1.77;;;14.80;1.00;;;;;;7372451;19;20464;-76
2023/03/24 05:18:45;;;;;;;2.47;2.00;;;14.80;1.00;;;;;;7368883;19;20033;-76
2023/03/24 05:21:15;;;;;;;4.57;2.05;;;14.70;1.00;;;;;;7393880;19;20450;-76
2023/03/24 05:23:45;;;;;;;3.88;2.20;;;14.60;1.00;;;;;;7370530;19;20010;-76
2023/03/24 05:26:15;;;;;;;5.05;2.75;;;14.40;1.00;;;;;;7370383;19;20010;-76
2023/03/24 05:28:44;;;;;;;4.47;2.83;;;14.20;1.00;;;;;;7369774;19;20019;-76
2023/03/24 05:31:17;;;;;;;5.13;2.58;;;14.00;1.00;;;;;;7371514;19;20006;-76
2023/03/24 05:33:47;;;;;;;4.00;2.55;;;13.70;1.00;;;;;;7370306;19;20086;-76
2023/03/24 05:36:17;;;;;;;3.45;2.10;;;13.50;1.00;;;;;;7394206;19;20010;-76
2023/03/24 05:38:47;;;;;;;3.80;2.67;;;13.40;1.00;;;;;;7369077;19;20010;-75
2023/03/24 05:41:17;;;;;;;3.55;2.70;;;13.30;1.00;;;;;;7369715;19;20010;-75
2023/03/24 05:43:47;;;;;;;8.73;2.80;;;13.20;1.00;;;;;;7370850;19;20014;-75
2023/03/24 05:46:19;;;;;;;5.45;2.78;;;13.10;1.00;;;;;;7371801;19;20006;-76
2023/03/24 05:48:50;;;;;;;4.03;3.08;;;13.00;1.00;;;;;;7367962;19;20014;-75
2023/03/24 05:51:20;;;;;;;4.13;2.80;;;13.00;1.00;;;;;;7391250;19;20014;-74
2023/03/24 05:53:50;;;;;;;3.42;2.88;;;12.90;1.00;;;;;;7369984;19;20030;-76
2023/03/24 05:56:20;;;;;;;7.47;3.63;;;12.90;1.00;;;;;;7368823;19;20015;-76
2023/03/24 05:58:51;;;;;;;4.25;3.17;;;13.00;1.00;;;;;;7366045;19;20017;-75
2023/03/24 06:01:24;;;;;;;5.18;2.95;;;13.00;1.00;;;;;;7369254;19;20678;-76
2023/03/24 06:03:54;;;;;;;4.50;3.17;;;12.90;1.00;;;;;;7368923;19;21427;-76
2023/03/24 06:06:25;;;;;;;4.43;3.33;;;12.90;1.00;;;;;;7391593;19;20336;-76
2023/03/24 06:08:57;;;;;;;5.18;3.10;;;12.80;1.90;;;;;;7369379;19;20336;-75
2023/03/24 06:11:27;;;;;;;4.97;3.35;;;12.90;2.30;;;;;;7367838;19;20387;-74
2023/03/24 06:13:59;;;;;;;4.03;3.00;;;12.90;2.90;;;;;;7367935;19;20584;-75
2023/03/24 06:16:48;;;;;;;5.30;3.90;;;12.90;5.20;;;;;;7368624;19;20018;-75
2023/03/24 06:19:21;;;;;;;6.95;4.13;;;12.80;6.70;;;;;;7368833;19;20017;-75
2023/03/24 06:21:51;;;;;;;4.45;3.17;;;12.80;8.70;;;;;;7369447;19;20015;-74
2023/03/24 06:24:21;;;;;;;5.43;3.50;;;12.80;9.70;;;;;;7389897;19;20031;-75
2023/03/24 06:26:51;;;;;;;6.03;3.75;;;12.70;9.70;;;;;;7367496;19;20029;-74
2023/03/24 06:29:21;;;;;;;4.93;3.58;;;12.70;11.30;;;;;;7366508;19;20011;-74
2023/03/24 06:31:54;;;;;;;5.88;3.83;;;12.70;10.80;;;;;;7368780;19;20021;-76
2023/03/24 06:34:24;;;;;;;5.53;3.50;;;12.70;11.80;;;;;;7367715;19;20007;-74
2023/03/24 06:36:54;;;;;;;4.53;3.88;;;12.70;11.90;;;;;;7368069;19;20015;-74
2023/03/24 06:39:25;;;;;;;5.55;4.25;;;12.70;12.70;;;;;;7387096;19;20754;-74
2023/03/24 06:41:55;;;;;;;7.07;3.72;;;12.70;11.90;;;;;;7367941;19;20365;-74
2023/03/24 06:44:25;;;;;;;7.90;4.50;;;12.90;11.70;;;;;;7368409;19;20423;-75
2023/03/24 06:46:57;;;;;;;6.15;3.70;;;13.00;9.90;;;;;;7366045;19;20922;-75
2023/03/24 06:49:27;;;;;;;6.80;3.63;;;12.90;9.40;;;;;;7366137;19;20026;-75
2023/03/24 06:51:57;;;;;;;9.30;3.80;;;13.00;8.20;;;;;;7368953;19;20014;-75
2023/03/24 06:54:27;;;;;;;5.40;3.60;;;13.00;8.10;;;;;;7387555;19;20013;-75
2023/03/24 06:56:58;;;;;;;6.40;3.28;;;13.10;7.90;;;;;;7367282;19;20014;-75
2023/03/24 06:59:28;;;;;;;6.25;3.28;;;13.10;7.20;;;;;;7366171;19;20094;-75
2023/03/24 07:02:00;;;;;;;5.55;3.67;;;13.10;7.60;;;;;;7367588;19;20011;-75
2023/03/24 07:04:35;;;;;;;4.85;3.83;;;13.20;7.70;;;;;;7367526;19;20082;-74
2023/03/24 07:07:05;;;;;;;;;;;13.20;7.00;;;;;;7368139;19;20022;-75
2023/03/24 07:09:41;;;;;;;5.10;3.30;;;13.20;7.10;;;;;;7364314;19;19938;-75
2023/03/24 07:12:11;;;;;;;3.67;2.85;;;13.30;6.60;;;;;;7390995;19;20006;-75
2023/03/24 07:14:43;;;;;;;6.80;3.38;;;13.30;6.90;;;;;;7367767;19;20467;-74
2023/03/24 07:17:16;;;;;;;4.97;2.88;;;13.30;8.30;;;;;;7366248;19;20697;-73
2023/03/24 07:19:46;;;;;;;4.82;3.00;;;13.40;7.70;;;;;;7365070;19;20470;-74
2023/03/24 07:22:16;;;;;;;6.95;3.17;;;13.40;9.00;;;;;;7368339;19;20013;-75
2023/03/24 07:24:46;;;;;;;5.85;3.00;;;13.40;10.10;;;;;;7365065;19;20022;-74
2023/03/24 07:27:16;;;;;;;5.40;2.90;;;13.30;10.00;;;;;;7388258;19;20011;-75
2023/03/24 07:29:45;;;;;;;4.38;3.28;;;13.30;10.00;;;;;;7364486;19;20494;-75
2023/03/24 07:32:18;;;;;;;4.38;2.83;;;13.40;11.00;;;;;;7367711;19;20058;-74
2023/03/24 07:34:48;;;;;;;4.22;2.60;;;13.30;11.80;;;;;;7366257;19;20467;-74
2023/03/24 07:37:18;;;;;;;7.70;2.67;;;13.30;11.80;;;;;;7367208;19;20549;-74
2023/03/24 07:39:48;;;;;;;3.95;3.00;;;13.20;12.60;;;;;;7364461;19;20010;-74
2023/03/24 07:42:17;;;;;;;4.07;2.65;;;13.20;13.60;;;;;;7391051;19;20006;-74
2023/03/24 07:44:47;;;;;;;5.97;2.65;;;13.10;15.00;;;;;;7366512;19;20010;-74
2023/03/24 07:47:20;;;;;;;4.07;2.90;;;13.10;16.10;;;;;;7362718;19;20466;-74
2023/03/24 07:49:50;;;;;;;5.68;2.90;;;13.00;17.00;;;;;;7363546;19;20103;-73
2023/03/24 07:52:20;;;;;;;4.95;2.78;;;13.10;18.20;;;;;;7366646;19;20423;-73
2023/03/24 07:54:50;;;;;;;10.13;5.85;;;13.10;19.30;;;;;;7364418;19;20015;-73
2023/03/24 07:57:20;;;;;;;4.03;2.63;;;13.00;20.60;;;;;;7387658;19;20379;-74
2023/03/24 07:59:50;;;;;;;4.45;2.83;;;13.00;20.70;;;;;;7363838;19;20014;-74
2023/03/24 08:02:23;;;;;;;3.50;2.95;;;13.10;21.30;;;;;;7366790;19;20014;-74
2023/03/24 08:04:55;;;;;;;5.90;3.00;;;13.00;22.30;;;;;;7365986;19;20518;-74
2023/03/24 08:07:25;;;;;;;4.15;2.60;;;13.00;22.60;;;;;;7362509;19;20684;-74
2023/03/24 08:09:55;;;;;;;4.13;2.53;;;13.00;22.70;;;;;;7363717;19;20020;-74
2023/03/24 08:12:25;;;;;;;3.63;2.67;;;13.00;22.70;;;;;;7387702;19;20157;-74
2023/03/24 08:14:55;;;;;;;5.20;3.00;;;13.00;23.90;;;;;;7365748;19;20014;-75
2023/03/24 08:17:27;;;;;;;7.05;3.65;;;13.00;24.20;;;;;;7364954;19;20044;-75
2023/03/24 08:19:57;;;;;;;4.53;2.65;;;13.00;25.00;;;;;;7363698;19;20003;-74
2023/03/24 08:22:31;;;;;;;3.35;2.70;;;13.00;26.20;;;;;;7367369;19;20030;-74
2023/03/24 08:25:01;;;;;;;4.88;2.85;;;13.00;26.30;;;;;;7369065;19;20007;-74
2023/03/24 08:27:31;;;;;;;4.60;2.75;;;13.00;26.40;;;;;;7385701;19;20129;-74
2023/03/24 08:30:00;;;;;;;3.88;2.78;;;13.00;27.60;;;;;;7363113;19;20351;-75
2023/03/24 08:32:33;;;;;;;4.15;2.67;;;13.10;27.60;;;;;;7378110;19;20014;-75
2023/03/24 08:35:04;;;;;;;2.60;2.30;;;13.10;28.10;;;;;;7396824;19;20016;-75
2023/03/24 08:37:34;;;;;;;5.88;2.47;;;13.20;27.00;;;;;;7404406;19;20028;-74
2023/03/24 08:40:05;;;;;;;4.95;2.70;;;13.20;26.70;;;;;;7385396;19;20415;-72
2023/03/24 08:42:35;;;;;;;6.03;3.20;;;13.30;27.70;;;;;;7381380;19;20019;-73
2023/03/24 08:45:06;;;;;;;5.90;2.85;;;13.30;26.10;;;;;;7395565;19;20054;-73
2023/03/24 08:47:39;;;;;;;8.43;3.10;;;13.40;25.30;;;;;;7369468;19;20015;-73
2023/03/24 08:50:10;;;;;;;3.78;2.78;;;13.50;25.30;;;;;;7369649;19;20015;-72
2023/03/24 08:52:40;;;;;;;3.67;2.60;;;13.50;22.20;;;;;;7371682;19;20090;-73
2023/03/24 08:55:11;;;;;;;4.43;2.88;;;13.60;21.80;;;;;;7372519;19;20010;-73
2023/03/24 08:57:41;;;;;;;3.05;2.72;;;13.70;21.60;;;;;;7369600;19;20014;-73
2023/03/24 09:00:14;;;;;;;3.85;2.50;;;13.60;19.20;;;;;;7389249;19;20375;-73
2023/03/24 09:02:48;;;;;;;3.65;2.72;;;13.80;19.40;;;;;;7372342;19;20106;-73
2023/03/24 09:05:18;;;;;;;3.13;2.55;;;13.80;19.00;;;;;;7372362;19;20010;-74
2023/03/24 09:07:59;;;;;;;3.35;2.35;;;13.90;18.50;;;;;;7368101;19;20119;-75
2023/03/24 09:10:29;;;;;;;3.50;2.47;;;13.90;18.20;;;;;;7369425;19;20014;-74
2023/03/24 09:12:59;;;;;;;2.40;2.20;;;14.00;18.30;;;;;;7371844;19;20015;-73
2023/03/24 09:15:28;;;;;;;5.57;2.92;;;14.00;16.10;;;;;;7391749;19;20010;-74
2023/03/24 09:18:01;;;;;;;3.38;2.25;;;14.20;16.60;;;;;;7370255;19;20375;-74
2023/03/24 09:20:31;;;;;;;3.00;2.00;;;14.20;16.10;;;;;;7368457;19;20633;-75
2023/03/24 09:23:01;;;;;;;2.40;1.90;;;14.20;12.90;;;;;;7370762;19;20691;-74
2023/03/24 09:25:31;;;;;;;2.38;1.90;;;14.20;11.50;;;;;;7370411;19;20007;-75
2023/03/24 09:28:01;;;;;;;3.47;1.83;;;14.20;11.30;;;;;;7370081;19;20006;-75
2023/03/24 09:30:31;;;;;;;3.10;1.75;;;14.10;10.10;;;;;;7390565;19;20085;-75
2023/03/24 09:33:06;;;;;;;2.83;1.90;;;14.00;10.50;;;;;;7371945;19;20025;-73
2023/03/24 09:35:37;;;;;;;4.07;1.88;;;14.00;11.00;;;;;;7370431;19;20498;-75
2023/03/24 09:38:09;;;;;;;3.08;1.77;;;14.00;10.50;;;;;;7368792;19;20015;-75
2023/03/24 09:40:41;;;;;;;3.08;1.80;;;14.00;9.60;;;;;;7370351;19;20014;-75
2023/03/24 09:43:24;;;;;;;3.95;2.50;;;14.00;10.40;;;;;;7371772;19;20078;-75
2023/03/24 09:45:56;;;;;;;2.88;1.80;;;14.10;10.60;;;;;;7369901;19;20066;-75
2023/03/24 09:48:36;;;;;;;2.90;2.10;;;14.30;10.00;;;;;;7388582;19;20017;-75
2023/03/24 09:51:11;;;;;;;2.13;1.80;;;14.50;9.30;;;;;;7371238;19;20035;-75
2023/03/24 09:53:48;;;;;;;2.10;1.90;;;14.50;6.10;;;;;;7370275;19;20015;-75
2023/03/24 09:56:20;;;;;;;3.20;2.00;;;14.70;5.20;;;;;;7370192;19;20012;-74
2023/03/24 09:58:54;;;;;;;4.38;1.73;;;14.90;5.00;;;;;;7368702;19;20013;-76
2023/03/24 10:01:25;;;;;;;3.05;1.83;;;15.00;2.10;;;;;;7368767;19;20541;-75
2023/03/24 10:04:00;;;;;;;2.50;1.70;;;15.00;1.00;;;;;;7370302;19;20007;-75
2023/03/24 10:06:38;;;;;;;1.92;1.23;;;15.20;1.00;;;;;;7391121;19;20462;-74
2023/03/24 10:09:19;;;;;;;1.38;1.23;;;15.20;1.00;;;;;;7367730;19;20051;-75
2023/03/24 10:11:59;;;;;;;1.85;1.42;;;15.70;1.00;;;;;;7370960;19;20061;-76
2023/03/24 10:14:54;;;;;;;1.73;1.40;;;15.90;1.00;;;;;;7368451;19;20034;-75
2023/03/24 10:17:27;;;;;;;;;;;16.10;1.00;;;;;;7368980;19;20014;-76
2023/03/24 10:20:07;;;;;;;2.20;1.73;;;16.10;1.00;;;;;;7366717;19;19974;-74
2023/03/24 10:22:45;;;;;;;1.88;1.30;;;16.20;1.00;;;;;;7368419;19;20015;-75
2023/03/24 10:25:23;;;;;;;2.47;1.70;;;16.20;1.00;;;;;;7370573;19;20018;-74
2023/03/24 10:27:58;;;;;;;2.30;1.70;;;16.30;1.00;;;;;;7367888;19;20109;-75
2023/03/24 10:30:31;;;;;;;1.92;1.50;;;16.20;1.00;;;;;;7388159;19;20017;-75
2023/03/24 10:33:02;;;;;;;2.20;1.30;;;16.20;1.00;;;;;;7369850;19;20017;-75
2023/03/24 10:35:38;;;;;;;2.03;1.50;;;16.20;1.00;;;;;;7369587;19;20006;-74
2023/03/24 10:38:17;;;;;;;1.55;1.15;;;16.20;1.00;;;;;;7367982;19;20019;-75
2023/03/24 10:40:48;;;;;;;2.03;1.35;;;16.20;1.00;;;;;;7367673;19;20079;-75
2023/03/24 10:43:20;;;;;;;1.85;1.27;;;16.10;1.00;;;;;;7369049;19;20006;-75
2023/03/24 10:45:54;;;;;;;2.28;1.40;;;15.90;1.00;;;;;;7368740;19;20003;-75
2023/03/24 10:48:37;;;;;;;2.00;1.30;;;15.90;1.00;;;;;;7388252;19;20031;-73
2023/03/24 10:51:16;;;;;;;5.38;1.65;;;15.90;1.00;;;;;;7368630;19;20027;-74
2023/03/24 10:53:49;;;;;;;3.28;1.13;;;15.90;1.00;;;;;;7368699;19;20094;-74
2023/03/24 10:56:20;;;;;;;2.55;1.35;;;16.00;1.00;;;;;;7368586;19;20014;-74
2023/03/24 10:58:50;;;;;;;3.40;1.55;;;15.90;1.00;;;;;;7362387;19;20479;-75
2023/03/24 11:01:26;;;;;;;1.52;1.30;;;15.90;1.00;;;;;;7367482;19;20175;-76
2023/03/24 11:04:03;;;;;;;4.20;1.48;;;15.90;1.00;;;;;;7367210;19;20000;-75
2023/03/24 11:06:36;;;;;;;1.30;1.17;;;16.20;1.00;;;;;;7389439;19;20029;-75
2023/03/24 11:09:12;;;;;;;3.47;1.60;;;16.20;1.00;;;;;;7366434;19;20014;-74
2023/03/24 11:11:42;;;;;;;5.13;1.40;;;16.50;1.00;;;;;;7368585;19;20050;-75
2023/03/24 11:14:25;;;;;;;4.45;1.10;;;16.60;1.00;;;;;;7367654;19;20048;-75
2023/03/24 11:17:04;;;;;;;1.65;1.00;;;16.70;1.00;;;;;;7366806;19;20025;-75
2023/03/24 11:19:36;;;;;;;5.20;1.65;;;16.90;1.00;;;;;;7364827;19;20034;-75
2023/03/24 11:22:12;;;;;;;2.35;1.55;;;17.00;1.00;;;;;;7367507;19;20030;-74
2023/03/24 11:24:42;;;;;;;2.58;1.02;;;17.00;1.00;;;;;;7367520;19;20038;-74
2023/03/24 11:27:17;;;;;;;1.75;1.00;;;17.00;1.00;;;;;;7389184;19;20478;-75
2023/03/24 11:29:52;;;;;;;1.00;0.90;;;16.90;1.00;;;;;;7364823;19;20014;-75
2023/03/24 11:32:28;;;;;;;1.08;0.90;;;16.80;1.00;;;;;;7367499;19;20877;-75
2023/03/24 11:35:06;;;;;;;1.58;0.98;;;16.80;1.00;;;;;;7366796;19;20034;-74
2023/03/24 11:37:40;;;;;;;1.98;1.00;;;16.70;1.00;;;;;;7366100;19;20022;-74
2023/03/24 11:40:27;;;;;;;2.60;1.20;;;16.70;1.00;;;;;;7366244;19;20477;-75
2023/03/24 11:43:01;;;;;;;4.03;2.22;;;16.50;1.00;;;;;;7367502;19;20490;-75
2023/03/24 11:45:38;;;;;;;3.13;2.33;;;16.40;1.00;;;;;;7388854;19;20040;-74
2023/03/24 11:48:27;;;;;;;2.08;0.98;;;16.30;1.00;;;;;;7366240;19;20010;-74
2023/03/24 11:51:00;;;;;;;2.15;0.80;;;16.20;1.00;;;;;;7364905;19;20107;-74
2023/03/24 11:53:40;;;;;;;1.33;1.10;;;16.10;1.00;;;;;;7367815;19;20490;-75
2023/03/24 11:56:19;;;;;;;2.28;1.25;;;15.80;1.00;;;;;;7369792;19;20007;-75
2023/03/24 11:58:51;;;;;;;1.10;0.90;;;15.60;1.00;;;;;;7365984;19;20015;-75
2023/03/24 12:01:30;;;;;;;1.30;1.00;;;15.40;1.00;;;;;;7366904;19;20014;-75
2023/03/24 12:04:20;;;;;;;1.90;1.15;;;15.50;1.00;;;;;;7378187;19;20094;-75
2023/03/24 12:07:06;;;;;;;1.00;0.90;;;15.40;1.00;;;;;;7397789;19;20059;-75
2023/03/24 12:09:44;;;;;;;2.15;1.23;;;15.40;1.00;;;;;;7396062;19;20591;-73
2023/03/24 12:12:29;;;;;;;1.00;0.85;;;15.40;1.00;;;;;;7401002;19;20034;-75
2023/03/24 12:15:18;;;;;;;1.27;1.02;;;15.40;1.00;;;;;;7375072;19;20018;-75
2023/03/24 12:18:10;;;;;;;2.35;1.15;;;15.50;1.00;;;;;;7365895;19;20006;-74
2023/03/24 12:20:47;;;;;;;1.42;0.95;;;15.60;1.00;;;;;;7367799;19;20026;-74
2023/03/24 12:23:23;;;;;;;1.23;1.08;;;15.80;1.00;;;;;;7373359;19;20010;-75
2023/03/24 12:26:15;;;;;;;1.83;1.00;;;16.10;1.00;;;;;;7373283;19;20482;-75
2023/03/24 12:29:00;;;;;;;1.95;1.10;;;16.10;1.00;;;;;;7372096;19;20014;-74
2023/03/24 12:32:07;;;;;;;4.63;1.27;;;16.30;1.00;;;;;;7369989;19;20018;-74
2023/03/24 12:35:18;;;;;;;1.60;1.00;;;16.10;1.00;;;;;;7368247;19;20482;-74
2023/03/24 12:37:53;;;;;;;2.53;1.00;;;15.90;1.00;;;;;;7371461;19;20027;-75
2023/03/24 12:40:58;;;;;;;2.17;1.13;;;15.80;1.00;;;;;;7371473;19;20485;-75
2023/03/24 12:43:40;;;;;;;1.45;1.08;;;15.80;1.00;;;;;;7354481;19;20472;-74
2023/03/24 12:46:22;;;;;;;1.10;0.90;;;15.80;1.00;;;;;;7372845;19;20503;-75
2023/03/24 12:49:02;;;;;;;1.10;0.90;;;15.70;1.00;;;;;;7371021;19;20525;-74
2023/03/24 12:51:41;;;;;;;1.88;0.88;;;15.60;1.00;;;;;;7386686;19;20010;-75
2023/03/24 12:54:26;;;;;;;1.55;0.82;;;15.60;1.00;;;;;;7372295;19;20068;-74
2023/03/24 12:57:00;;;;;;;1.27;0.70;;;15.60;1.00;;;;;;7368658;19;20050;-74
2023/03/24 12:59:40;;;;;;;2.67;0.90;;;15.60;1.00;;;;;;7364361;19;20088;-73
2023/03/24 13:02:28;;;;;;;0.90;0.60;;;15.60;1.00;;;;;;7373382;19;20996;-74
2023/03/24 13:05:04;;;;;;;1.55;0.70;;;15.70;1.00;;;;;;7369237;19;20498;-74
2023/03/24 13:07:37;;;;;;;1.08;0.68;;;15.70;1.00;;;;;;7367119;19;20014;-74
2023/03/24 13:10:16;;;;;;;2.30;0.63;;;15.60;1.00;;;;;;7367230;19;20074;-74
2023/03/24 13:12:52;;;;;;;1.33;0.60;;;15.20;1.00;;;;;;7370385;19;20046;-75
2023/03/24 13:15:29;;;;;;;2.15;0.88;;;14.00;1.00;;;;;;7388442;19;20526;-72
2023/03/24 13:18:19;;;;;;;2.63;0.70;;;13.00;1.00;;;;;;7367411;19;20311;-73
2023/03/24 13:20:54;;;;;;;2.30;0.70;;;12.80;1.00;;;;;;7367603;19;20006;-73
2023/03/24 13:23:38;;;;;;;2.65;0.80;;;12.50;1.00;;;;;;7365627;19;20022;-74
2023/03/24 13:26:19;;;;;;;4.80;0.85;;;12.10;1.00;;;;;;7370853;19;20016;-74
2023/03/24 13:28:57;;;;;;;1.75;0.68;;;12.00;1.00;;;;;;7367934;19;20010;-74
2023/03/24 13:31:34;;;;;;;3.42;0.82;;;11.90;1.00;;;;;;7370505;19;20077;-74
2023/03/24 13:34:06;;;;;;;6.57;1.52;;;11.90;1.00;;;;;;7371758;19;20501;-74
2023/03/24 13:36:46;;;;;;;3.55;0.90;;;11.90;1.00;;;;;;7367923;19;20026;-75